sensor_id;sensor_type;location;lat;lon;timestamp;temperature;humidity
64715;DHT22;51144;53.002;6.506;2023-02-01T00:01:23;6.00;99.90
64715;DHT22;51144;53.002;6.506;2023-02-01T00:03:48;6.00;99.90
64715;DHT22;51144;53.002;6.506;2023-02-01T00:06:14;6.00;99.90
64715;DHT22;51144;53.002;6.506;2023-02-01T00:08:39;6.10;99.90
64715;DHT22;51144;53.002;6.506;2023-02-01T00:11:06;6.10;99.90
64715;DHT22;51144;53.002;6.506;2023-02-01T00:13:32;6.00;99.90
64715;DHT22;51144;53.002;6.506;2023-02-01T00:18:29;6.00;99.90
64715;DHT22;51144;53.002;6.506;2023-02-01T00:20:55;6.10;99.90
64715;DHT22;51144;53.002;6.506;2023-02-01T00:23:20;6.10;99.90
64715;DHT22;51144;53.002;6.506;2023-02-01T00:25:46;6.10;99.90
64715;DHT22;51144;53.002;6.506;2023-02-01T00:28:11;6.10;99.90
64715;DHT22;51144;53.002;6.506;2023-02-01T00:30:38;6.10;99.90
64715;DHT22;51144;53.002;6.506;2023-02-01T00:33:03;6.10;99.90
64715;DHT22;51144;53.002;6.506;2023-02-01T00:35:29;6.10;99.90
64715;DHT22;51144;53.002;6.506;2023-02-01T00:37:54;6.10;99.90
64715;DHT22;51144;53.002;6.506;2023-02-01T00:40:20;6.10;99.90
64715;DHT22;51144;53.002;6.506;2023-02-01T00:42:45;6.10;99.90
64715;DHT22;51144;53.002;6.506;2023-02-01T00:45:11;6.10;99.90
64715;DHT22;51144;53.002;6.506;2023-02-01T00:47:37;6.10;99.90
64715;DHT22;51144;53.002;6.506;2023-02-01T00:50:02;6.10;99.90
64715;DHT22;51144;53.002;6.506;2023-02-01T00:52:28;6.10;99.90
64715;DHT22;51144;53.002;6.506;2023-02-01T00:54:53;6.10;99.90
64715;DHT22;51144;53.002;6.506;2023-02-01T00:57:19;6.10;99.90
64715;DHT22;51144;53.002;6.506;2023-02-01T00:59:44;6.10;99.90
64715;DHT22;51144;53.002;6.506;2023-02-01T01:02:10;6.20;99.90
64715;DHT22;51144;53.002;6.506;2023-02-01T01:04:37;6.10;99.90
64715;DHT22;51144;53.002;6.506;2023-02-01T01:07:03;6.10;99.90
64715;DHT22;51144;53.002;6.506;2023-02-01T01:09:28;6.10;99.90
64715;DHT22;51144;53.002;6.506;2023-02-01T01:11:54;6.10;99.90
64715;DHT22;51144;53.002;6.506;2023-02-01T01:14:19;6.10;99.90
64715;DHT22;51144;53.002;6.506;2023-02-01T01:16:45;6.10;99.90
64715;DHT22;51144;53.002;6.506;2023-02-01T01:19:10;6.20;99.90
64715;DHT22;51144;53.002;6.506;2023-02-01T01:21:36;6.10;99.90
64715;DHT22;51144;53.002;6.506;2023-02-01T01:24:02;6.10;99.90
64715;DHT22;51144;53.002;6.506;2023-02-01T01:26:28;6.20;99.90
64715;DHT22;51144;53.002;6.506;2023-02-01T01:28:55;6.20;99.90
64715;DHT22;51144;53.002;6.506;2023-02-01T01:31:21;6.10;99.90
64715;DHT22;51144;53.002;6.506;2023-02-01T01:33:50;6.20;99.90
64715;DHT22;51144;53.002;6.506;2023-02-01T01:36:16;6.20;99.90
64715;DHT22;51144;53.002;6.506;2023-02-01T01:38:43;6.30;99.90
64715;DHT22;51144;53.002;6.506;2023-02-01T01:41:11;6.20;99.90
64715;DHT22;51144;53.002;6.506;2023-02-01T01:43:56;6.30;99.90
64715;DHT22;51144;53.002;6.506;2023-02-01T01:46:23;6.30;99.90
64715;DHT22;51144;53.002;6.506;2023-02-01T01:48:51;6.30;99.90
64715;DHT22;51144;53.002;6.506;2023-02-01T01:51:18;6.30;99.90
64715;DHT22;51144;53.002;6.506;2023-02-01T01:53:48;6.30;99.90
64715;DHT22;51144;53.002;6.506;2023-02-01T01:56:15;6.20;99.90
64715;DHT22;51144;53.002;6.506;2023-02-01T01:58:41;6.10;99.90
64715;DHT22;51144;53.002;6.506;2023-02-01T02:01:06;6.20;99.90
64715;DHT22;51144;53.002;6.506;2023-02-01T02:03:37;6.10;99.90
64715;DHT22;51144;53.002;6.506;2023-02-01T02:06:05;6.10;99.90
64715;DHT22;51144;53.002;6.506;2023-02-01T02:08:33;6.10;99.90
64715;DHT22;51144;53.002;6.506;2023-02-01T02:10:58;6.00;99.90
64715;DHT22;51144;53.002;6.506;2023-02-01T02:13:27;6.00;99.90
64715;DHT22;51144;53.002;6.506;2023-02-01T02:16:17;5.90;99.90
64715;DHT22;51144;53.002;6.506;2023-02-01T02:21:32;5.90;99.90
64715;DHT22;51144;53.002;6.506;2023-02-01T02:34:32;5.90;99.90
64715;DHT22;51144;53.002;6.506;2023-02-01T02:39:29;5.80;99.90
64715;DHT22;51144;53.002;6.506;2023-02-01T02:42:10;5.80;99.90
64715;DHT22;51144;53.002;6.506;2023-02-01T02:48:10;5.90;99.90
64715;DHT22;51144;53.002;6.506;2023-02-01T02:50:40;5.80;99.90
64715;DHT22;51144;53.002;6.506;2023-02-01T02:53:27;5.80;99.90
64715;DHT22;51144;53.002;6.506;2023-02-01T02:56:14;5.90;99.90
64715;DHT22;51144;53.002;6.506;2023-02-01T02:58:59;5.90;99.90
64715;DHT22;51144;53.002;6.506;2023-02-01T03:01:43;5.90;99.90
64715;DHT22;51144;53.002;6.506;2023-02-01T03:04:27;5.90;99.90
64715;DHT22;51144;53.002;6.506;2023-02-01T03:06:53;5.90;99.90
64715;DHT22;51144;53.002;6.506;2023-02-01T03:11:50;5.90;99.90
64715;DHT22;51144;53.002;6.506;2023-02-01T03:14:38;6.00;99.90
64715;DHT22;51144;53.002;6.506;2023-02-01T03:17:13;6.00;99.90
64715;DHT22;51144;53.002;6.506;2023-02-01T03:19:40;6.00;99.90
64715;DHT22;51144;53.002;6.506;2023-02-01T03:22:12;6.00;99.90
64715;DHT22;51144;53.002;6.506;2023-02-01T03:24:46;6.00;99.90
64715;DHT22;51144;53.002;6.506;2023-02-01T03:27:18;6.00;99.90
64715;DHT22;51144;53.002;6.506;2023-02-01T03:29:54;6.10;99.90
64715;DHT22;51144;53.002;6.506;2023-02-01T03:32:20;6.10;99.90
64715;DHT22;51144;53.002;6.506;2023-02-01T03:34:46;6.10;99.90
64715;DHT22;51144;53.002;6.506;2023-02-01T03:37:12;6.10;99.90
64715;DHT22;51144;53.002;6.506;2023-02-01T03:42:11;6.10;99.90
64715;DHT22;51144;53.002;6.506;2023-02-01T03:44:38;6.10;99.90
64715;DHT22;51144;53.002;6.506;2023-02-01T03:47:10;6.10;99.90
64715;DHT22;51144;53.002;6.506;2023-02-01T03:49:41;6.10;99.90
64715;DHT22;51144;53.002;6.506;2023-02-01T03:52:12;6.20;99.90
64715;DHT22;51144;53.002;6.506;2023-02-01T03:54:38;6.20;99.90
64715;DHT22;51144;53.002;6.506;2023-02-01T03:57:08;6.20;99.90
64715;DHT22;51144;53.002;6.506;2023-02-01T03:59:38;6.20;99.90
64715;DHT22;51144;53.002;6.506;2023-02-01T04:02:03;6.20;99.90
64715;DHT22;51144;53.002;6.506;2023-02-01T04:04:29;6.20;99.90
64715;DHT22;51144;53.002;6.506;2023-02-01T04:06:54;6.30;99.90
64715;DHT22;51144;53.002;6.506;2023-02-01T04:09:20;6.20;99.90
64715;DHT22;51144;53.002;6.506;2023-02-01T04:11:45;6.20;99.90
64715;DHT22;51144;53.002;6.506;2023-02-01T04:14:11;6.20;99.90
64715;DHT22;51144;53.002;6.506;2023-02-01T04:16:36;6.20;99.90
64715;DHT22;51144;53.002;6.506;2023-02-01T04:19:02;6.20;99.90
64715;DHT22;51144;53.002;6.506;2023-02-01T04:21:27;6.10;99.90
64715;DHT22;51144;53.002;6.506;2023-02-01T04:23:53;6.10;99.90
64715;DHT22;51144;53.002;6.506;2023-02-01T04:26:19;6.10;99.90
64715;DHT22;51144;53.002;6.506;2023-02-01T04:28:45;6.10;99.90
64715;DHT22;51144;53.002;6.506;2023-02-01T04:31:13;6.00;99.90
64715;DHT22;51144;53.002;6.506;2023-02-01T04:33:39;6.00;99.90
64715;DHT22;51144;53.002;6.506;2023-02-01T04:36:04;6.10;99.90
64715;DHT22;51144;53.002;6.506;2023-02-01T04:38:30;6.10;99.90
64715;DHT22;51144;53.002;6.506;2023-02-01T04:40:57;6.10;99.90
64715;DHT22;51144;53.002;6.506;2023-02-01T04:43:23;6.10;99.90
64715;DHT22;51144;53.002;6.506;2023-02-01T04:45:49;6.10;99.90
64715;DHT22;51144;53.002;6.506;2023-02-01T04:48:15;6.10;99.90
64715;DHT22;51144;53.002;6.506;2023-02-01T04:50:40;6.10;99.90
64715;DHT22;51144;53.002;6.506;2023-02-01T04:53:06;6.10;99.90
64715;DHT22;51144;53.002;6.506;2023-02-01T04:55:31;6.10;99.90
64715;DHT22;51144;53.002;6.506;2023-02-01T04:57:57;6.10;99.90
64715;DHT22;51144;53.002;6.506;2023-02-01T05:00:22;6.10;99.90
64715;DHT22;51144;53.002;6.506;2023-02-01T05:02:48;6.20;99.90
64715;DHT22;51144;53.002;6.506;2023-02-01T05:05:13;6.20;99.90
64715;DHT22;51144;53.002;6.506;2023-02-01T05:07:39;6.10;99.90
64715;DHT22;51144;53.002;6.506;2023-02-01T05:10:05;6.10;99.90
64715;DHT22;51144;53.002;6.506;2023-02-01T05:12:30;6.10;99.90
64715;DHT22;51144;53.002;6.506;2023-02-01T05:15:15;6.10;99.90
64715;DHT22;51144;53.002;6.506;2023-02-01T05:17:40;6.10;99.90
64715;DHT22;51144;53.002;6.506;2023-02-01T05:20:06;6.10;99.90
64715;DHT22;51144;53.002;6.506;2023-02-01T05:22:32;6.10;99.90
64715;DHT22;51144;53.002;6.506;2023-02-01T05:24:57;6.20;99.90
64715;DHT22;51144;53.002;6.506;2023-02-01T05:27:23;6.20;99.90
64715;DHT22;51144;53.002;6.506;2023-02-01T05:29:48;6.20;99.90
64715;DHT22;51144;53.002;6.506;2023-02-01T05:32:14;6.20;99.90
64715;DHT22;51144;53.002;6.506;2023-02-01T05:34:39;6.20;99.90
64715;DHT22;51144;53.002;6.506;2023-02-01T05:37:05;6.10;99.90
64715;DHT22;51144;53.002;6.506;2023-02-01T05:39:30;6.20;99.90
64715;DHT22;51144;53.002;6.506;2023-02-01T05:41:56;6.20;99.90
64715;DHT22;51144;53.002;6.506;2023-02-01T05:44:21;6.20;99.90
64715;DHT22;51144;53.002;6.506;2023-02-01T05:46:47;6.30;99.90
64715;DHT22;51144;53.002;6.506;2023-02-01T05:49:12;6.20;99.90
64715;DHT22;51144;53.002;6.506;2023-02-01T05:51:38;6.20;99.90
64715;DHT22;51144;53.002;6.506;2023-02-01T05:54:03;6.20;99.90
64715;DHT22;51144;53.002;6.506;2023-02-01T05:56:29;6.30;99.90
64715;DHT22;51144;53.002;6.506;2023-02-01T05:58:54;6.30;99.90
64715;DHT22;51144;53.002;6.506;2023-02-01T06:01:20;6.30;99.90
64715;DHT22;51144;53.002;6.506;2023-02-01T06:03:45;6.30;99.90
64715;DHT22;51144;53.002;6.506;2023-02-01T06:06:11;6.40;99.90
64715;DHT22;51144;53.002;6.506;2023-02-01T06:08:36;6.40;99.90
64715;DHT22;51144;53.002;6.506;2023-02-01T06:11:05;6.40;99.90
64715;DHT22;51144;53.002;6.506;2023-02-01T06:13:31;6.40;99.90
64715;DHT22;51144;53.002;6.506;2023-02-01T06:15:57;6.40;99.90
64715;DHT22;51144;53.002;6.506;2023-02-01T06:18:23;6.30;99.90
64715;DHT22;51144;53.002;6.506;2023-02-01T06:20:55;6.30;99.90
64715;DHT22;51144;53.002;6.506;2023-02-01T06:23:21;6.30;99.90
64715;DHT22;51144;53.002;6.506;2023-02-01T06:26:07;6.20;99.90
64715;DHT22;51144;53.002;6.506;2023-02-01T06:28:35;6.20;99.90
64715;DHT22;51144;53.002;6.506;2023-02-01T06:31:05;6.30;99.90
64715;DHT22;51144;53.002;6.506;2023-02-01T06:33:32;6.30;99.90
64715;DHT22;51144;53.002;6.506;2023-02-01T06:35:58;6.20;99.90
64715;DHT22;51144;53.002;6.506;2023-02-01T06:38:24;6.20;99.90
64715;DHT22;51144;53.002;6.506;2023-02-01T06:40:52;6.20;99.90
64715;DHT22;51144;53.002;6.506;2023-02-01T06:43:17;6.10;99.90
64715;DHT22;51144;53.002;6.506;2023-02-01T06:45:43;6.10;99.90
64715;DHT22;51144;53.002;6.506;2023-02-01T06:48:08;6.10;99.90
64715;DHT22;51144;53.002;6.506;2023-02-01T06:50:34;6.10;99.90
64715;DHT22;51144;53.002;6.506;2023-02-01T06:53:00;6.10;99.90
64715;DHT22;51144;53.002;6.506;2023-02-01T06:55:26;6.10;99.90
64715;DHT22;51144;53.002;6.506;2023-02-01T06:57:54;6.10;99.90
64715;DHT22;51144;53.002;6.506;2023-02-01T07:00:21;6.10;99.90
64715;DHT22;51144;53.002;6.506;2023-02-01T07:02:47;6.10;99.90
64715;DHT22;51144;53.002;6.506;2023-02-01T07:05:12;6.10;99.90
64715;DHT22;51144;53.002;6.506;2023-02-01T07:07:38;6.10;99.90
64715;DHT22;51144;53.002;6.506;2023-02-01T07:10:03;6.10;99.90
64715;DHT22;51144;53.002;6.506;2023-02-01T07:12:29;6.10;99.90
64715;DHT22;51144;53.002;6.506;2023-02-01T07:14:54;6.10;99.90
64715;DHT22;51144;53.002;6.506;2023-02-01T07:17:20;6.10;99.90
64715;DHT22;51144;53.002;6.506;2023-02-01T07:19:45;6.20;99.90
64715;DHT22;51144;53.002;6.506;2023-02-01T14:30:59;8.10;99.90
64715;DHT22;51144;53.002;6.506;2023-02-01T14:33:27;8.00;99.90
64715;DHT22;51144;53.002;6.506;2023-02-01T14:36:22;8.00;99.90
64715;DHT22;51144;53.002;6.506;2023-02-01T14:38:49;8.00;99.90
64715;DHT22;51144;53.002;6.506;2023-02-01T14:41:35;8.00;99.90
64715;DHT22;51144;53.002;6.506;2023-02-01T14:50:02;7.90;99.90
64715;DHT22;51144;53.002;6.506;2023-02-01T14:52:32;7.80;99.90
64715;DHT22;51144;53.002;6.506;2023-02-01T14:55:04;7.80;99.90
64715;DHT22;51144;53.002;6.506;2023-02-01T14:57:33;7.80;99.90
64715;DHT22;51144;53.002;6.506;2023-02-01T15:00:11;7.80;99.90
64715;DHT22;51144;53.002;6.506;2023-02-01T15:02:40;7.70;99.90
64715;DHT22;51144;53.002;6.506;2023-02-01T15:05:32;7.70;99.90
64715;DHT22;51144;53.002;6.506;2023-02-01T15:08:19;7.70;99.90
64715;DHT22;51144;53.002;6.506;2023-02-01T15:10:48;7.70;99.90
64715;DHT22;51144;53.002;6.506;2023-02-01T15:13:21;7.60;99.90
64715;DHT22;51144;53.002;6.506;2023-02-01T15:16:24;7.70;99.90
64715;DHT22;51144;53.002;6.506;2023-02-01T15:18:50;7.70;99.90
64715;DHT22;51144;53.002;6.506;2023-02-01T15:21:31;7.70;99.90
64715;DHT22;51144;53.002;6.506;2023-02-01T15:24:18;7.70;99.90
64715;DHT22;51144;53.002;6.506;2023-02-01T15:26:44;7.70;99.90
64715;DHT22;51144;53.002;6.506;2023-02-01T15:29:14;7.70;99.90
64715;DHT22;51144;53.002;6.506;2023-02-01T15:31:42;7.70;99.90
64715;DHT22;51144;53.002;6.506;2023-02-01T15:34:08;7.60;99.90
64715;DHT22;51144;53.002;6.506;2023-02-01T15:36:34;7.60;99.90
64715;DHT22;51144;53.002;6.506;2023-02-01T15:39:20;7.60;99.90
64715;DHT22;51144;53.002;6.506;2023-02-01T15:42:08;7.60;99.90
64715;DHT22;51144;53.002;6.506;2023-02-01T15:44:44;7.60;99.90
64715;DHT22;51144;53.002;6.506;2023-02-01T15:47:18;7.60;99.90
64715;DHT22;51144;53.002;6.506;2023-02-01T15:49:52;7.70;99.90
64715;DHT22;51144;53.002;6.506;2023-02-01T15:52:46;7.70;99.90
64715;DHT22;51144;53.002;6.506;2023-02-01T15:55:26;7.60;99.90
64715;DHT22;51144;53.002;6.506;2023-02-01T15:58:04;7.60;99.90
64715;DHT22;51144;53.002;6.506;2023-02-01T16:00:40;7.60;99.90
64715;DHT22;51144;53.002;6.506;2023-02-01T16:06:05;7.60;99.90
64715;DHT22;51144;53.002;6.506;2023-02-01T16:08:32;7.50;99.90
64715;DHT22;51144;53.002;6.506;2023-02-01T16:13:33;7.50;99.90
64715;DHT22;51144;53.002;6.506;2023-02-01T16:15:59;7.50;99.90
64715;DHT22;51144;53.002;6.506;2023-02-01T16:18:25;7.50;99.90
64715;DHT22;51144;53.002;6.506;2023-02-01T16:20:50;7.50;99.90
64715;DHT22;51144;53.002;6.506;2023-02-01T16:23:16;7.40;99.90
64715;DHT22;51144;53.002;6.506;2023-02-01T16:25:42;7.40;99.90
64715;DHT22;51144;53.002;6.506;2023-02-01T16:28:08;7.40;99.90
64715;DHT22;51144;53.002;6.506;2023-02-01T16:30:34;7.30;99.90
64715;DHT22;51144;53.002;6.506;2023-02-01T16:33:00;7.30;99.90
64715;DHT22;51144;53.002;6.506;2023-02-01T16:35:35;7.20;99.90
64715;DHT22;51144;53.002;6.506;2023-02-01T16:38:09;7.20;99.90
64715;DHT22;51144;53.002;6.506;2023-02-01T16:40:38;7.10;99.90
64715;DHT22;51144;53.002;6.506;2023-02-01T16:43:21;7.10;99.90
64715;DHT22;51144;53.002;6.506;2023-02-01T16:45:49;7.10;99.90
64715;DHT22;51144;53.002;6.506;2023-02-01T16:48:28;7.00;99.90
64715;DHT22;51144;53.002;6.506;2023-02-01T16:50:57;7.00;99.90
64715;DHT22;51144;53.002;6.506;2023-02-01T16:53:24;7.00;99.90
64715;DHT22;51144;53.002;6.506;2023-02-01T16:55:50;6.90;99.90
64715;DHT22;51144;53.002;6.506;2023-02-01T16:58:18;6.90;99.90
64715;DHT22;51144;53.002;6.506;2023-02-01T17:00:44;6.90;99.90
64715;DHT22;51144;53.002;6.506;2023-02-01T17:03:12;6.80;99.90
64715;DHT22;51144;53.002;6.506;2023-02-01T17:05:43;6.80;99.90
64715;DHT22;51144;53.002;6.506;2023-02-01T17:08:12;6.80;99.90
64715;DHT22;51144;53.002;6.506;2023-02-01T17:10:39;6.80;99.90
64715;DHT22;51144;53.002;6.506;2023-02-01T17:13:07;6.70;99.90
64715;DHT22;51144;53.002;6.506;2023-02-01T17:15:34;6.80;99.90
64715;DHT22;51144;53.002;6.506;2023-02-01T17:18:01;6.80;99.90
64715;DHT22;51144;53.002;6.506;2023-02-01T17:20:29;6.80;99.90
64715;DHT22;51144;53.002;6.506;2023-02-01T17:22:58;6.80;99.90
64715;DHT22;51144;53.002;6.506;2023-02-01T17:25:24;6.80;99.90
64715;DHT22;51144;53.002;6.506;2023-02-01T17:27:51;6.80;99.90
64715;DHT22;51144;53.002;6.506;2023-02-01T17:30:17;6.90;99.90
64715;DHT22;51144;53.002;6.506;2023-02-01T17:32:43;6.80;99.90
64715;DHT22;51144;53.002;6.506;2023-02-01T17:35:20;6.90;99.90
64715;DHT22;51144;53.002;6.506;2023-02-01T17:37:47;6.80;99.90
64715;DHT22;51144;53.002;6.506;2023-02-01T17:40:13;6.90;99.90
64715;DHT22;51144;53.002;6.506;2023-02-01T17:42:39;6.80;99.90
64715;DHT22;51144;53.002;6.506;2023-02-01T17:45:39;6.80;99.90
64715;DHT22;51144;53.002;6.506;2023-02-01T17:48:07;6.80;99.90
64715;DHT22;51144;53.002;6.506;2023-02-01T17:50:36;6.70;99.90
64715;DHT22;51144;53.002;6.506;2023-02-01T17:53:03;6.80;99.90
64715;DHT22;51144;53.002;6.506;2023-02-01T17:55:32;6.80;99.90
64715;DHT22;51144;53.002;6.506;2023-02-01T17:57:59;6.60;99.90
64715;DHT22;51144;53.002;6.506;2023-02-01T18:00:24;6.60;99.90
64715;DHT22;51144;53.002;6.506;2023-02-01T18:02:50;6.70;99.90
64715;DHT22;51144;53.002;6.506;2023-02-01T18:05:38;6.60;99.90
64715;DHT22;51144;53.002;6.506;2023-02-01T18:08:05;6.60;99.90
64715;DHT22;51144;53.002;6.506;2023-02-01T18:10:31;6.60;99.90
64715;DHT22;51144;53.002;6.506;2023-02-01T18:12:56;6.70;99.90
64715;DHT22;51144;53.002;6.506;2023-02-01T18:15:30;6.70;99.90
64715;DHT22;51144;53.002;6.506;2023-02-01T18:17:58;6.70;99.90
64715;DHT22;51144;53.002;6.506;2023-02-01T18:20:26;6.60;99.90
64715;DHT22;51144;53.002;6.506;2023-02-01T18:22:52;6.60;99.90
64715;DHT22;51144;53.002;6.506;2023-02-01T18:25:19;6.60;99.90
64715;DHT22;51144;53.002;6.506;2023-02-01T18:27:49;6.60;99.90
64715;DHT22;51144;53.002;6.506;2023-02-01T18:30:17;6.60;99.90
64715;DHT22;51144;53.002;6.506;2023-02-01T18:32:43;6.60;99.90
64715;DHT22;51144;53.002;6.506;2023-02-01T18:35:21;6.50;99.90
64715;DHT22;51144;53.002;6.506;2023-02-01T18:37:48;6.50;99.90
64715;DHT22;51144;53.002;6.506;2023-02-01T18:40:19;6.40;99.90
64715;DHT22;51144;53.002;6.506;2023-02-01T18:42:46;6.40;99.90
64715;DHT22;51144;53.002;6.506;2023-02-01T18:47:51;6.30;99.90
64715;DHT22;51144;53.002;6.506;2023-02-01T18:50:17;6.40;99.90
64715;DHT22;51144;53.002;6.506;2023-02-01T18:52:51;6.40;99.90
64715;DHT22;51144;53.002;6.506;2023-02-01T18:55:17;6.40;99.90
64715;DHT22;51144;53.002;6.506;2023-02-01T18:57:43;6.40;99.90
64715;DHT22;51144;53.002;6.506;2023-02-01T19:00:10;6.40;99.90
64715;DHT22;51144;53.002;6.506;2023-02-01T19:02:37;6.40;99.90
64715;DHT22;51144;53.002;6.506;2023-02-01T19:05:05;6.40;99.90
64715;DHT22;51144;53.002;6.506;2023-02-01T19:07:33;6.40;99.90
64715;DHT22;51144;53.002;6.506;2023-02-01T19:09:59;6.30;99.90
64715;DHT22;51144;53.002;6.506;2023-02-01T19:12:26;6.30;99.90
64715;DHT22;51144;53.002;6.506;2023-02-01T19:14:51;6.20;99.90
64715;DHT22;51144;53.002;6.506;2023-02-01T19:17:17;6.20;99.90
64715;DHT22;51144;53.002;6.506;2023-02-01T19:19:43;6.20;99.90
64715;DHT22;51144;53.002;6.506;2023-02-01T19:22:10;6.10;99.90
64715;DHT22;51144;53.002;6.506;2023-02-01T19:24:37;6.00;99.90
64715;DHT22;51144;53.002;6.506;2023-02-01T19:27:03;6.00;99.90
64715;DHT22;51144;53.002;6.506;2023-02-01T19:29:29;6.00;99.90
64715;DHT22;51144;53.002;6.506;2023-02-01T19:31:55;6.00;99.90
64715;DHT22;51144;53.002;6.506;2023-02-01T19:34:21;5.90;99.90
64715;DHT22;51144;53.002;6.506;2023-02-01T19:36:47;5.90;99.90
64715;DHT22;51144;53.002;6.506;2023-02-01T19:39:14;5.80;99.90
64715;DHT22;51144;53.002;6.506;2023-02-01T19:41:40;5.90;99.90
64715;DHT22;51144;53.002;6.506;2023-02-01T19:44:06;5.80;99.90
64715;DHT22;51144;53.002;6.506;2023-02-01T19:46:31;5.80;99.90
64715;DHT22;51144;53.002;6.506;2023-02-01T19:48:57;5.70;99.90
64715;DHT22;51144;53.002;6.506;2023-02-01T19:51:23;5.70;99.90
64715;DHT22;51144;53.002;6.506;2023-02-01T19:53:48;5.60;99.90
64715;DHT22;51144;53.002;6.506;2023-02-01T19:56:14;5.60;99.90
64715;DHT22;51144;53.002;6.506;2023-02-01T19:58:40;5.60;99.90
64715;DHT22;51144;53.002;6.506;2023-02-01T20:01:05;5.50;99.90
64715;DHT22;51144;53.002;6.506;2023-02-01T20:03:31;5.50;99.90
64715;DHT22;51144;53.002;6.506;2023-02-01T20:05:58;5.50;99.90
64715;DHT22;51144;53.002;6.506;2023-02-01T20:08:25;5.50;99.90
64715;DHT22;51144;53.002;6.506;2023-02-01T20:10:51;5.40;99.90
64715;DHT22;51144;53.002;6.506;2023-02-01T20:13:17;5.40;99.90
64715;DHT22;51144;53.002;6.506;2023-02-01T20:15:43;5.40;99.90
64715;DHT22;51144;53.002;6.506;2023-02-01T20:18:08;5.40;99.90
64715;DHT22;51144;53.002;6.506;2023-02-01T20:20:34;5.30;99.90
64715;DHT22;51144;53.002;6.506;2023-02-01T20:23:00;5.30;99.90
64715;DHT22;51144;53.002;6.506;2023-02-01T20:25:28;5.30;99.90
64715;DHT22;51144;53.002;6.506;2023-02-01T20:27:54;5.20;99.90
64715;DHT22;51144;53.002;6.506;2023-02-01T20:30:20;5.30;99.90
64715;DHT22;51144;53.002;6.506;2023-02-01T20:32:48;5.20;99.90
64715;DHT22;51144;53.002;6.506;2023-02-01T20:35:14;5.20;99.90
64715;DHT22;51144;53.002;6.506;2023-02-01T20:37:39;5.20;99.90
64715;DHT22;51144;53.002;6.506;2023-02-01T20:40:08;5.10;99.90
64715;DHT22;51144;53.002;6.506;2023-02-01T20:42:34;5.10;99.90
64715;DHT22;51144;53.002;6.506;2023-02-01T20:45:03;5.10;99.90
64715;DHT22;51144;53.002;6.506;2023-02-01T20:47:29;5.00;99.90
64715;DHT22;51144;53.002;6.506;2023-02-01T20:49:55;4.90;99.90
64715;DHT22;51144;53.002;6.506;2023-02-01T20:52:21;5.00;99.90
64715;DHT22;51144;53.002;6.506;2023-02-01T20:54:46;4.90;99.90
64715;DHT22;51144;53.002;6.506;2023-02-01T20:57:12;4.90;99.90
64715;DHT22;51144;53.002;6.506;2023-02-01T20:59:38;4.90;99.90
64715;DHT22;51144;53.002;6.506;2023-02-01T21:02:04;4.80;99.90
64715;DHT22;51144;53.002;6.506;2023-02-01T21:04:30;4.80;99.90
64715;DHT22;51144;53.002;6.506;2023-02-01T21:06:57;4.80;99.90
64715;DHT22;51144;53.002;6.506;2023-02-01T21:09:24;4.80;99.90
64715;DHT22;51144;53.002;6.506;2023-02-01T21:11:50;4.70;99.90
64715;DHT22;51144;53.002;6.506;2023-02-01T21:14:17;4.80;99.90
64715;DHT22;51144;53.002;6.506;2023-02-01T21:16:42;4.70;99.90
64715;DHT22;51144;53.002;6.506;2023-02-01T21:19:08;4.80;99.90
64715;DHT22;51144;53.002;6.506;2023-02-01T21:21:34;4.80;99.90
64715;DHT22;51144;53.002;6.506;2023-02-01T21:24:00;4.70;99.90
64715;DHT22;51144;53.002;6.506;2023-02-01T21:26:27;4.80;99.90
64715;DHT22;51144;53.002;6.506;2023-02-01T21:28:54;4.80;99.90
64715;DHT22;51144;53.002;6.506;2023-02-01T21:31:21;4.80;99.90
64715;DHT22;51144;53.002;6.506;2023-02-01T21:33:47;4.70;99.90
64715;DHT22;51144;53.002;6.506;2023-02-01T21:36:17;4.80;99.90
64715;DHT22;51144;53.002;6.506;2023-02-01T21:38:50;4.80;99.90
64715;DHT22;51144;53.002;6.506;2023-02-01T21:41:21;4.80;99.90
64715;DHT22;51144;53.002;6.506;2023-02-01T21:44:05;4.90;99.90
64715;DHT22;51144;53.002;6.506;2023-02-01T21:46:31;4.80;99.90
64715;DHT22;51144;53.002;6.506;2023-02-01T21:48:57;4.80;99.90
64715;DHT22;51144;53.002;6.506;2023-02-01T21:51:22;4.80;99.90
64715;DHT22;51144;53.002;6.506;2023-02-01T21:53:48;4.70;99.90
64715;DHT22;51144;53.002;6.506;2023-02-01T21:56:14;4.70;99.90
64715;DHT22;51144;53.002;6.506;2023-02-01T21:58:39;4.70;99.90
64715;DHT22;51144;53.002;6.506;2023-02-01T22:01:06;4.70;99.90
64715;DHT22;51144;53.002;6.506;2023-02-01T22:03:32;4.70;99.90
64715;DHT22;51144;53.002;6.506;2023-02-01T22:06:07;4.60;99.90
64715;DHT22;51144;53.002;6.506;2023-02-01T22:08:35;4.60;99.90
64715;DHT22;51144;53.002;6.506;2023-02-01T22:11:01;4.60;99.90
64715;DHT22;51144;53.002;6.506;2023-02-01T22:13:26;4.60;99.90
64715;DHT22;51144;53.002;6.506;2023-02-01T22:15:52;4.60;99.90
64715;DHT22;51144;53.002;6.506;2023-02-01T22:18:19;4.60;99.90
64715;DHT22;51144;53.002;6.506;2023-02-01T22:20:44;4.50;99.90
64715;DHT22;51144;53.002;6.506;2023-02-01T22:23:10;4.50;99.90
64715;DHT22;51144;53.002;6.506;2023-02-01T22:25:36;4.40;99.90
64715;DHT22;51144;53.002;6.506;2023-02-01T22:28:01;4.40;99.90
64715;DHT22;51144;53.002;6.506;2023-02-01T22:30:27;4.30;99.90
64715;DHT22;51144;53.002;6.506;2023-02-01T22:32:53;4.30;99.90
64715;DHT22;51144;53.002;6.506;2023-02-01T22:35:18;4.20;99.90
64715;DHT22;51144;53.002;6.506;2023-02-01T22:37:44;4.20;99.90
64715;DHT22;51144;53.002;6.506;2023-02-01T22:40:10;4.20;99.90
64715;DHT22;51144;53.002;6.506;2023-02-01T22:42:36;4.10;99.90
64715;DHT22;51144;53.002;6.506;2023-02-01T22:45:02;4.10;99.90
64715;DHT22;51144;53.002;6.506;2023-02-01T22:47:29;4.10;99.90
64715;DHT22;51144;53.002;6.506;2023-02-01T22:49:54;4.10;99.90
64715;DHT22;51144;53.002;6.506;2023-02-01T22:52:20;4.10;99.90
64715;DHT22;51144;53.002;6.506;2023-02-01T22:54:46;4.10;99.90
64715;DHT22;51144;53.002;6.506;2023-02-01T22:57:11;4.10;99.90
64715;DHT22;51144;53.002;6.506;2023-02-01T22:59:37;4.10;99.90
64715;DHT22;51144;53.002;6.506;2023-02-01T23:02:03;4.10;99.90
64715;DHT22;51144;53.002;6.506;2023-02-01T23:04:29;4.10;99.90
64715;DHT22;51144;53.002;6.506;2023-02-01T23:06:54;4.00;99.90
64715;DHT22;51144;53.002;6.506;2023-02-01T23:09:22;4.00;99.90
64715;DHT22;51144;53.002;6.506;2023-02-01T23:11:50;3.90;99.90
64715;DHT22;51144;53.002;6.506;2023-02-01T23:14:16;3.90;99.90
64715;DHT22;51144;53.002;6.506;2023-02-01T23:16:46;3.90;99.90
64715;DHT22;51144;53.002;6.506;2023-02-01T23:19:14;3.90;99.90
64715;DHT22;51144;53.002;6.506;2023-02-01T23:21:40;3.90;99.90
64715;DHT22;51144;53.002;6.506;2023-02-01T23:24:06;3.90;99.90
64715;DHT22;51144;53.002;6.506;2023-02-01T23:26:35;3.90;99.90
64715;DHT22;51144;53.002;6.506;2023-02-01T23:29:01;3.90;99.90
64715;DHT22;51144;53.002;6.506;2023-02-01T23:31:30;3.90;99.90
64715;DHT22;51144;53.002;6.506;2023-02-01T23:33:57;3.90;99.90
64715;DHT22;51144;53.002;6.506;2023-02-01T23:36:25;3.90;99.90
64715;DHT22;51144;53.002;6.506;2023-02-01T23:38:51;3.90;99.90
64715;DHT22;51144;53.002;6.506;2023-02-01T23:41:18;3.80;99.90